<?xml version='1.0' encoding='UTF-8'?>
<gpx xmlns="http://www.topografix.com/GPX/1/1" creator="www.balnam.be" version="1.1" xmlns:xsi="http://www.w3.org/2001/XMLSchema-instance" xsi:schemaLocation="http://www.topografix.com/GPX/1/1 http://www.topografix.com/GPX/1/1/gpx.xsd">
<trk>
<name>xnsfr23</name>
<cmt>v</cmt>
<desc>Forrières Sentier n°23 Rue Orzée / Rue de la Colinne / Rue de la Ramée / Rue de Lesterny</desc>
<link href="https://chemins.be/forrieres/sentier/23"/><trkseg>
<trkpt lat="50.133489" lon="5.282321"><time>2026-05-04T17:10:34Z</time></trkpt>
<trkpt lat="50.133017" lon="5.282457"><time>2026-05-04T17:20:34Z</time></trkpt>
<trkpt lat="50.131597" lon="5.282868"><time>2026-05-04T17:30:34Z</time></trkpt>
<trkpt lat="50.131630" lon="5.283059"><time>2026-05-04T17:40:34Z</time></trkpt>
<trkpt lat="50.131269" lon="5.283222"><time>2026-05-04T17:50:34Z</time></trkpt>
</trkseg></trk>
<trk>
<name>xnsfr23</name>
<cmt>r</cmt>
<desc>Forrières Sentier n°23 Rue Orzée / Rue de la Colinne / Rue de la Ramée / Rue de Lesterny</desc>
<link href="https://chemins.be/forrieres/sentier/23"/><trkseg>
<trkpt lat="50.131269" lon="5.283222"><time>2026-05-04T17:50:34Z</time></trkpt>
<trkpt lat="50.131109" lon="5.282586"><time>2026-05-04T18:00:34Z</time></trkpt>
<trkpt lat="50.130136" lon="5.281996"><time>2026-05-04T18:10:34Z</time></trkpt>
<trkpt lat="50.129400" lon="5.281393"><time>2026-05-04T18:20:34Z</time></trkpt>
<trkpt lat="50.129305" lon="5.281790"><time>2026-05-04T18:30:34Z</time></trkpt>
</trkseg></trk>
<trk>
<name>xnsfr23</name>
<cmt>v</cmt>
<desc>Forrières Sentier n°23 Rue Orzée / Rue de la Colinne / Rue de la Ramée / Rue de Lesterny</desc>
<link href="https://chemins.be/forrieres/sentier/23"/><trkseg>
<trkpt lat="50.129305" lon="5.281790"><time>2026-05-04T18:30:34Z</time></trkpt>
<trkpt lat="50.128984" lon="5.281703"><time>2026-05-04T18:40:34Z</time></trkpt>
<trkpt lat="50.128725" lon="5.281418"><time>2026-05-04T18:50:34Z</time></trkpt>
<trkpt lat="50.128281" lon="5.280739"><time>2026-05-04T19:00:34Z</time></trkpt>
<trkpt lat="50.128114" lon="5.280316"><time>2026-05-04T19:10:34Z</time></trkpt>
<trkpt lat="50.128005" lon="5.280370"><time>2026-05-04T19:20:34Z</time></trkpt>
<trkpt lat="50.127908" lon="5.280200"><time>2026-05-04T19:30:34Z</time></trkpt>
<trkpt lat="50.127725" lon="5.280532"><time>2026-05-04T19:40:34Z</time></trkpt>
<trkpt lat="50.127199" lon="5.281207"><time>2026-05-04T19:50:34Z</time></trkpt>
<trkpt lat="50.127086" lon="5.281066"><time>2026-05-04T20:00:34Z</time></trkpt>
<trkpt lat="50.126322" lon="5.282053"><time>2026-05-04T20:10:34Z</time></trkpt>
<trkpt lat="50.125538" lon="5.281066"><time>2026-05-04T20:20:34Z</time></trkpt>
<trkpt lat="50.124679" lon="5.282135"><time>2026-05-04T20:30:34Z</time></trkpt>
<trkpt lat="50.124525" lon="5.282229"><time>2026-05-04T20:40:34Z</time></trkpt>
<trkpt lat="50.124387" lon="5.282199"><time>2026-05-04T20:50:34Z</time></trkpt>
</trkseg></trk>
<trk>
<name>xnsfr23</name>
<cmt>q</cmt>
<desc>Forrières Sentier n°23 Rue Orzée / Rue de la Colinne / Rue de la Ramée / Rue de Lesterny</desc>
<link href="https://chemins.be/forrieres/sentier/23"/><trkseg>
<trkpt lat="50.124387" lon="5.282199"><time>2026-05-04T20:50:34Z</time></trkpt>
<trkpt lat="50.123633" lon="5.282074"><time>2026-05-04T21:00:34Z</time></trkpt>
<trkpt lat="50.123172" lon="5.281495"><time>2026-05-04T21:10:34Z</time></trkpt>
<trkpt lat="50.121947" lon="5.281355"><time>2026-05-04T21:20:34Z</time></trkpt>
</trkseg></trk>
<trk>
<name>xnsfr23</name>
<cmt>r</cmt>
<desc>Forrières Sentier n°23 Rue Orzée / Rue de la Colinne / Rue de la Ramée / Rue de Lesterny</desc>
<link href="https://chemins.be/forrieres/sentier/23"/><trkseg>
<trkpt lat="50.121947" lon="5.281355"><time>2026-05-04T21:20:34Z</time></trkpt>
<trkpt lat="50.119767" lon="5.279993"><time>2026-05-04T21:30:34Z</time></trkpt>
</trkseg>
</trk>
</gpx>